Time;durP1;ratioP1;P1;durP2;ratioP2;P2;SDS_P1;SDS_P2;PMS_P1;PMS_P2;Temp;Humidity;BMP_temperature;BMP_pressure;BME280_temperature;BME280_humidity;BME280_pressure;Samples;Min_cycle;Max_cycle;Signal;HPM_P1;HPM_P2
2023/06/03 00:02:57;;;;;;;11.05;4.85;;;18.60;68.90;;;;;;6326372;28;20421;-74
2023/06/03 00:06:00;;;;;;;8.98;4.57;;;18.50;68.80;;;;;;6326027;28;20052;-75
2023/06/03 00:09:02;;;;;;;10.90;4.32;;;18.50;68.90;;;;;;6326199;28;20052;-74
2023/06/03 00:12:05;;;;;;;11.80;4.45;;;18.50;69.40;;;;;;6326461;28;20044;-75
2023/06/03 00:15:09;;;;;;;8.63;4.25;;;18.30;69.20;;;;;;6325986;28;20398;-75
2023/06/03 00:18:11;;;;;;;12.85;4.40;;;18.00;70.70;;;;;;6324904;28;20055;-73
2023/06/03 00:21:16;;;;;;;9.13;4.00;;;17.80;71.50;;;;;;6324851;28;20052;-75
2023/06/03 00:24:20;;;;;;;14.20;4.32;;;17.90;71.40;;;;;;6325013;28;20058;-74
2023/06/03 00:27:22;;;;;;;13.40;4.40;;;17.90;71.20;;;;;;6324873;28;20044;-75
2023/06/03 00:30:24;;;;;;;12.43;4.30;;;17.90;71.00;;;;;;6324789;28;20058;-75
2023/06/03 00:33:25;;;;;;;9.93;4.32;;;17.80;71.30;;;;;;6324223;28;20467;-74
2023/06/03 00:36:29;;;;;;;9.48;3.97;;;17.80;71.40;;;;;;6324705;28;20064;-76
2023/06/03 00:39:31;;;;;;;9.55;4.05;;;17.90;71.20;;;;;;6324666;28;20048;-75
2023/06/03 00:42:33;;;;;;;9.82;4.20;;;17.70;72.00;;;;;;6324600;28;20074;-76
2023/06/03 00:45:35;;;;;;;11.68;4.30;;;17.80;71.60;;;;;;6324479;28;20059;-76
2023/06/03 00:48:37;;;;;;;9.43;4.47;;;17.90;71.70;;;;;;6322474;28;20495;-73
2023/06/03 00:51:42;;;;;;;11.32;4.63;;;17.90;71.30;;;;;;6324262;28;20044;-76
2023/06/03 00:54:47;;;;;;;8.73;4.05;;;17.90;71.00;;;;;;6324666;28;20051;-75
2023/06/03 00:57:51;;;;;;;10.65;4.60;;;17.90;71.10;;;;;;6324572;28;20051;-75
2023/06/03 01:00:53;;;;;;;7.85;4.03;;;17.90;70.80;;;;;;6324637;28;20189;-76
2023/06/03 01:03:54;;;;;;;11.40;4.70;;;17.80;71.00;;;;;;6325012;28;20638;-75
2023/06/03 01:07:07;;;;;;;13.90;4.95;;;17.10;73.20;;;;;;6324483;28;20055;-75
2023/06/03 01:10:20;;;;;;;10.15;4.22;;;16.70;75.40;;;;;;6324998;28;20048;-75
2023/06/03 01:13:29;;;;;;;8.35;4.25;;;17.00;75.10;;;;;;6325767;28;20040;-75
2023/06/03 01:16:34;;;;;;;9.25;4.63;;;17.30;74.00;;;;;;6344825;28;20391;-75
2023/06/03 01:19:47;;;;;;;11.13;4.22;;;17.30;74.60;;;;;;6344097;28;20127;-75
2023/06/03 01:22:56;;;;;;;7.45;3.95;;;17.20;75.10;;;;;;6342671;28;20044;-75
2023/06/03 01:26:00;;;;;;;8.80;4.50;;;17.30;75.20;;;;;;6335801;28;20044;-74
2023/06/03 01:29:02;;;;;;;8.68;4.78;;;17.20;75.50;;;;;;6322951;28;20044;-76
2023/06/03 01:32:05;;;;;;;10.63;4.47;;;17.20;75.10;;;;;;6322933;28;20481;-76
2023/06/03 01:35:10;;;;;;;7.15;4.22;;;17.30;75.50;;;;;;6322986;28;20097;-75
2023/06/03 01:38:13;;;;;;;7.97;4.57;;;17.10;75.90;;;;;;6322925;28;20059;-75
2023/06/03 01:41:17;;;;;;;8.68;4.63;;;17.10;76.20;;;;;;6322275;28;20044;-73
2023/06/03 01:44:19;;;;;;;9.35;4.72;;;17.00;76.50;;;;;;6321857;28;20397;-75
2023/06/03 01:47:21;;;;;;;8.23;4.32;;;17.10;76.70;;;;;;6322582;28;20044;-74
2023/06/03 01:50:24;;;;;;;11.45;5.00;;;17.00;76.70;;;;;;6322529;28;20409;-73
2023/06/03 01:53:25;;;;;;;8.75;4.10;;;17.00;76.90;;;;;;6322913;28;20096;-75
2023/06/03 01:56:29;;;;;;;8.50;4.38;;;16.90;77.40;;;;;;6322808;28;20054;-75
2023/06/03 01:59:30;;;;;;;7.45;4.43;;;16.80;77.80;;;;;;6323105;28;20048;-75
2023/06/03 02:02:32;;;;;;;9.60;4.47;;;16.80;77.80;;;;;;6322590;28;20051;-75
2023/06/03 02:05:34;;;;;;;8.65;4.50;;;16.80;78.10;;;;;;6322563;28;20055;-75
2023/06/03 02:08:36;;;;;;;7.75;4.20;;;16.70;78.50;;;;;;6322655;28;20048;-75
2023/06/03 02:11:43;;;;;;;10.43;4.60;;;16.70;78.50;;;;;;6322257;28;20058;-75
2023/06/03 02:14:45;;;;;;;10.85;4.70;;;16.60;78.60;;;;;;6322498;28;20055;-75
2023/06/03 02:17:48;;;;;;;9.30;4.45;;;16.40;79.10;;;;;;6322102;28;20060;-76
2023/06/03 02:20:52;;;;;;;11.07;4.47;;;16.40;80.00;;;;;;6322183;28;20059;-74
2023/06/03 02:23:54;;;;;;;6.93;4.07;;;16.40;79.40;;;;;;6322065;28;20394;-75
2023/06/03 02:27:00;;;;;;;11.05;4.57;;;16.40;79.40;;;;;;6322299;28;20044;-75
2023/06/03 02:30:04;;;;;;;10.65;4.88;;;16.40;79.40;;;;;;6322106;28;20051;-76
2023/06/03 02:33:06;;;;;;;7.65;4.60;;;16.30;80.10;;;;;;6322142;28;20048;-75
2023/06/03 02:36:09;;;;;;;7.03;4.22;;;16.20;79.70;;;;;;6321953;28;20497;-74
2023/06/03 02:39:11;;;;;;;10.63;4.50;;;16.20;79.90;;;;;;6322494;28;20128;-74
2023/06/03 02:42:15;;;;;;;8.02;4.40;;;16.20;80.00;;;;;;6321959;28;20474;-75
2023/06/03 02:45:16;;;;;;;9.73;4.82;;;16.10;80.10;;;;;;6322510;28;20055;-75
2023/06/03 02:48:18;;;;;;;10.18;4.50;;;16.10;80.20;;;;;;6321844;28;20048;-74
2023/06/03 02:51:20;;;;;;;8.38;4.43;;;16.10;80.40;;;;;;6321826;28;20075;-75
2023/06/03 02:54:22;;;;;;;9.38;4.85;;;16.00;80.70;;;;;;6321995;28;20044;-75
2023/06/03 02:57:26;;;;;;;9.68;4.80;;;16.00;81.10;;;;;;6326440;28;20044;-74
2023/06/03 03:00:28;;;;;;;9.27;4.57;;;16.00;81.00;;;;;;6326804;28;20170;-75
2023/06/03 03:03:35;;;;;;;10.25;4.70;;;15.90;81.10;;;;;;6326765;28;20051;-75
2023/06/03 03:06:37;;;;;;;10.35;4.63;;;15.80;81.40;;;;;;6326617;28;20055;-75
2023/06/03 03:09:40;;;;;;;8.57;4.90;;;15.90;81.60;;;;;;6326320;28;20474;-74
2023/06/03 03:12:43;;;;;;;9.50;4.83;;;15.80;81.80;;;;;;6326919;28;20086;-74
2023/06/03 03:15:45;;;;;;;9.30;4.68;;;15.70;82.30;;;;;;6332375;28;20044;-76
2023/06/03 03:18:47;;;;;;;7.63;4.80;;;15.60;82.40;;;;;;6326841;28;20051;-73
2023/06/03 03:21:49;;;;;;;9.13;4.43;;;15.50;82.90;;;;;;6326450;28;20489;-76
2023/06/03 03:24:52;;;;;;;9.82;4.60;;;15.40;83.50;;;;;;6326630;28;20044;-76
2023/06/03 03:27:56;;;;;;;8.18;4.80;;;15.40;83.40;;;;;;6326280;28;20139;-75
2023/06/03 03:30:58;;;;;;;9.35;4.50;;;15.40;83.30;;;;;;6325912;28;20056;-75
2023/06/03 03:34:01;;;;;;;7.70;4.53;;;15.40;83.30;;;;;;6326135;28;20055;-76
2023/06/03 03:37:03;;;;;;;7.70;4.22;;;15.40;83.30;;;;;;6325750;28;20052;-73
2023/06/03 03:40:11;;;;;;;9.63;4.55;;;15.40;83.40;;;;;;6326040;28;20378;-75
2023/06/03 03:43:19;;;;;;;10.75;4.38;;;15.30;83.90;;;;;;6325903;28;20409;-75
2023/06/03 03:46:21;;;;;;;8.88;4.80;;;15.30;84.00;;;;;;6325969;28;20048;-75
2023/06/03 03:49:29;;;;;;;11.15;5.47;;;15.30;84.10;;;;;;6325489;28;20067;-76
2023/06/03 03:52:34;;;;;;;8.75;5.07;;;15.30;84.30;;;;;;6325720;28;20133;-76
2023/06/03 03:55:41;;;;;;;10.30;5.20;;;15.30;84.30;;;;;;6325490;28;20063;-75
2023/06/03 03:58:46;;;;;;;15.93;5.25;;;15.30;84.80;;;;;;6325620;28;20051;-75
2023/06/03 04:01:49;;;;;;;7.78;4.90;;;15.30;85.00;;;;;;6325404;28;20055;-75
2023/06/03 04:04:51;;;;;;;9.77;4.72;;;15.20;85.20;;;;;;6325124;28;20051;-74
2023/06/03 04:07:54;;;;;;;9.10;4.97;;;15.20;85.10;;;;;;6323830;28;20040;-74
2023/06/03 04:10:59;;;;;;;9.98;4.90;;;15.20;85.60;;;;;;6323549;28;20055;-75
2023/06/03 04:14:03;;;;;;;7.88;4.30;;;15.30;85.70;;;;;;6324604;28;20615;-75
2023/06/03 04:17:06;;;;;;;7.15;4.35;;;15.30;85.80;;;;;;6325006;28;20051;-74
2023/06/03 04:20:28;;;;;;;11.75;4.55;;;15.30;85.90;;;;;;6324948;28;20406;-76
2023/06/03 04:23:30;;;;;;;10.85;4.43;;;15.40;86.10;;;;;;6325206;28;20048;-75
2023/06/03 04:26:32;;;;;;;10.95;4.93;;;15.40;85.70;;;;;;6324965;28;20059;-75
2023/06/03 04:29:36;;;;;;;8.55;4.35;;;15.40;85.90;;;;;;6325553;28;20131;-75
2023/06/03 04:32:38;;;;;;;7.97;4.38;;;15.50;86.20;;;;;;6325705;28;20052;-75
2023/06/03 04:35:40;;;;;;;9.75;4.70;;;15.50;85.90;;;;;;6325018;28;20413;-74
2023/06/03 04:38:43;;;;;;;9.45;4.57;;;15.40;86.10;;;;;;6324623;28;20040;-73
2023/06/03 04:41:45;;;;;;;8.27;4.60;;;15.30;87.40;;;;;;6325038;28;20051;-74
2023/06/03 04:44:49;;;;;;;10.80;4.75;;;15.30;86.70;;;;;;6324803;28;20048;-74
2023/06/03 04:47:58;;;;;;;8.68;4.65;;;15.40;86.90;;;;;;6324302;28;20501;-74
2023/06/03 04:51:01;;;;;;;9.23;4.68;;;15.40;86.90;;;;;;6324536;28;20059;-74
2023/06/03 04:54:04;;;;;;;7.30;4.47;;;15.50;87.20;;;;;;6324377;28;20048;-74
2023/06/03 04:57:07;;;;;;;10.38;4.80;;;15.60;87.10;;;;;;6324493;28;20044;-75
2023/06/03 05:00:11;;;;;;;8.80;4.83;;;15.50;87.70;;;;;;6324556;28;20048;-75
2023/06/03 05:03:16;;;;;;;13.57;5.20;;;15.50;88.00;;;;;;6324488;28;20667;-75
2023/06/03 05:06:19;;;;;;;9.30;4.65;;;15.50;88.10;;;;;;6324291;28;20047;-75
2023/06/03 05:09:21;;;;;;;9.45;4.55;;;15.50;88.20;;;;;;6324132;28;20127;-76
2023/06/03 05:12:23;;;;;;;9.55;5.65;;;15.40;88.50;;;;;;6322786;28;20050;-76
2023/06/03 05:15:26;;;;;;;8.65;4.82;;;15.50;88.40;;;;;;6324174;28;20469;-75
2023/06/03 05:18:28;;;;;;;8.75;4.97;;;15.40;88.90;;;;;;6323712;28;20059;-75
2023/06/03 05:21:30;;;;;;;13.65;5.13;;;15.40;88.90;;;;;;6323816;28;20051;-74
2023/06/03 05:24:32;;;;;;;11.18;5.50;;;15.40;89.20;;;;;;6323662;28;20040;-75
2023/06/03 05:27:35;;;;;;;10.60;5.45;;;15.40;88.60;;;;;;6329425;28;20063;-75
2023/06/03 05:30:38;;;;;;;12.73;5.47;;;15.40;88.20;;;;;;6314192;28;20068;-77
2023/06/03 05:33:40;;;;;;;10.52;5.47;;;15.40;87.20;;;;;;6314446;28;20049;-74
2023/06/03 05:36:42;;;;;;;10.85;5.25;;;15.50;88.00;;;;;;6316352;28;20125;-76
2023/06/03 05:39:44;;;;;;;11.85;5.75;;;15.60;87.40;;;;;;6306420;28;20063;-75
2023/06/03 05:42:47;;;;;;;11.93;5.38;;;15.50;86.50;;;;;;6303352;28;20060;-76
2023/06/03 05:45:51;;;;;;;11.20;5.53;;;15.60;86.40;;;;;;6298987;28;20060;-73
2023/06/03 05:48:53;;;;;;;11.35;5.25;;;15.60;86.10;;;;;;6298583;28;20060;-73
2023/06/03 05:51:55;;;;;;;13.02;5.38;;;15.70;86.20;;;;;;6298129;28;20405;-75
2023/06/03 05:54:57;;;;;;;11.52;6.07;;;15.70;86.90;;;;;;6298131;28;20052;-75
2023/06/03 05:57:58;;;;;;;13.45;5.80;;;15.60;86.30;;;;;;6297786;28;20060;-73
2023/06/03 06:01:02;;;;;;;13.32;5.35;;;15.80;86.10;;;;;;6298264;28;20050;-75
2023/06/03 06:04:03;;;;;;;13.50;6.15;;;15.90;85.80;;;;;;6298072;28;20052;-74
2023/06/03 06:07:05;;;;;;;12.30;5.75;;;15.80;86.60;;;;;;6298183;28;20112;-76
2023/06/03 06:10:08;;;;;;;10.50;5.28;;;15.90;86.30;;;;;;6298884;28;20056;-77
2023/06/03 06:13:10;;;;;;;14.10;5.40;;;15.80;87.00;;;;;;6298116;28;20547;-74
2023/06/03 06:16:13;;;;;;;10.25;5.50;;;15.50;88.50;;;;;;6298632;28;20049;-75
2023/06/03 06:19:15;;;;;;;11.93;5.45;;;15.60;89.10;;;;;;6299332;28;20041;-76
2023/06/03 06:22:17;;;;;;;17.05;6.05;;;15.80;89.40;;;;;;6300561;28;20045;-75
2023/06/03 06:25:19;;;;;;;11.50;5.60;;;16.10;87.50;;;;;;6300639;28;20049;-77
2023/06/03 06:28:26;;;;;;;11.57;5.38;;;16.10;87.20;;;;;;6296653;28;20405;-74
2023/06/03 06:31:30;;;;;;;11.40;5.40;;;16.00;88.10;;;;;;6299724;28;20508;-73
2023/06/03 06:34:37;;;;;;;14.30;5.28;;;15.90;89.50;;;;;;6304239;28;20633;-75
2023/06/03 06:37:39;;;;;;;9.70;5.05;;;16.10;88.30;;;;;;6302796;28;20478;-76
2023/06/03 06:40:42;;;;;;;13.43;4.85;;;16.20;87.10;;;;;;6302548;28;20550;-75
2023/06/03 06:43:44;;;;;;;12.60;5.22;;;16.50;86.60;;;;;;6303288;28;20051;-76
2023/06/03 06:46:51;;;;;;;14.68;5.47;;;16.50;86.40;;;;;;6302335;28;20044;-75
2023/06/03 06:49:56;;;;;;;12.50;5.18;;;16.70;86.10;;;;;;6302597;28;20044;-75
2023/06/03 06:52:58;;;;;;;13.20;5.18;;;16.80;86.40;;;;;;6302163;28;20057;-76
2023/06/03 06:56:05;;;;;;;11.82;4.75;;;16.60;87.00;;;;;;6302384;28;20406;-75
2023/06/03 06:59:07;;;;;;;12.32;4.93;;;16.70;86.50;;;;;;6301978;28;20409;-76
2023/06/03 07:02:10;;;;;;;11.23;4.47;;;16.60;87.80;;;;;;6302304;28;20040;-74
2023/06/03 07:05:12;;;;;;;13.38;4.97;;;16.80;87.50;;;;;;6301723;28;20406;-76
2023/06/03 07:08:14;;;;;;;12.95;4.80;;;16.70;86.50;;;;;;6303256;28;20051;-74
2023/06/03 07:11:16;;;;;;;11.38;4.88;;;17.00;85.90;;;;;;6301776;28;20048;-73
2023/06/03 07:14:18;;;;;;;12.13;4.93;;;17.00;85.60;;;;;;6302018;28;20049;-75
2023/06/03 07:17:21;;;;;;;9.60;4.40;;;17.20;85.30;;;;;;6301553;28;20071;-76
2023/06/03 07:20:31;;;;;;;10.70;4.43;;;17.30;85.20;;;;;;6301782;28;20486;-76
2023/06/03 07:23:34;;;;;;;10.93;4.57;;;17.30;84.70;;;;;;6301907;28;20049;-74
2023/06/03 07:26:36;;;;;;;;;;;17.30;84.70;;;;;;6304824;28;20041;-75
2023/06/03 07:29:39;;;;;;;10.98;4.47;;;17.50;85.30;;;;;;6321968;28;19924;-76
2023/06/03 07:32:43;;;;;;;11.30;4.82;;;17.50;85.30;;;;;;6317564;28;20068;-76
2023/06/03 07:35:45;;;;;;;11.82;4.80;;;17.50;83.90;;;;;;6315471;28;20074;-76
2023/06/03 07:39:09;;;;;;;12.10;4.53;;;17.70;83.80;;;;;;6307528;28;20055;-75
2023/06/03 07:42:20;;;;;;;8.88;4.85;;;17.80;83.40;;;;;;6298833;28;20057;-75
2023/06/03 07:45:22;;;;;;;14.73;4.60;;;17.80;82.60;;;;;;6302278;28;20052;-72
2023/06/03 07:48:26;;;;;;;12.18;4.72;;;17.90;82.80;;;;;;6301026;28;20052;-75
2023/06/03 07:51:27;;;;;;;;;;;18.00;82.60;;;;;;6301598;28;20048;-75
2023/06/03 07:54:29;;;;;;;12.00;4.68;;;18.10;81.90;;;;;;6300858;28;19927;-75
2023/06/03 07:57:46;;;;;;;12.30;4.15;;;18.20;82.30;;;;;;6301016;28;20102;-76
2023/06/03 08:00:52;;;;;;;12.15;4.65;;;18.30;82.50;;;;;;6300928;28;20086;-74
2023/06/03 08:03:56;;;;;;;9.93;4.35;;;18.10;82.40;;;;;;6300465;28;20044;-74
2023/06/03 08:06:59;;;;;;;9.65;4.45;;;18.20;82.50;;;;;;6301108;28;20055;-73
2023/06/03 08:10:03;;;;;;;10.13;4.85;;;18.20;80.70;;;;;;6300637;28;20097;-73
2023/06/03 08:13:05;;;;;;;11.10;4.68;;;18.30;80.40;;;;;;6300238;28;20045;-75
2023/06/03 08:16:07;;;;;;;11.27;4.95;;;18.40;80.40;;;;;;6300593;28;20049;-73
2023/06/03 08:19:13;;;;;;;11.27;4.78;;;18.60;80.30;;;;;;6300700;28;20048;-74
2023/06/03 08:22:40;;;;;;;11.02;5.07;;;18.70;79.70;;;;;;6300636;28;20054;-75
2023/06/03 08:25:43;;;;;;;13.18;4.93;;;18.80;79.30;;;;;;6300734;28;20044;-75
2023/06/03 08:28:46;;;;;;;;;;;18.80;78.70;;;;;;6301076;28;20048;-74
2023/06/03 08:31:48;;;;;;;11.68;4.97;;;18.90;80.10;;;;;;6300349;28;19920;-75
2023/06/03 08:34:51;;;;;;;12.32;4.70;;;18.90;78.90;;;;;;6299888;28;20048;-75
2023/06/03 08:37:53;;;;;;;11.73;5.10;;;18.90;78.40;;;;;;6299825;28;20049;-74
2023/06/03 08:40:56;;;;;;;8.93;4.30;;;19.00;78.60;;;;;;6300189;28;20402;-75
2023/06/03 08:44:05;;;;;;;11.55;4.97;;;19.00;78.50;;;;;;6300287;28;20055;-75
2023/06/03 08:47:13;;;;;;;8.68;4.53;;;19.10;78.90;;;;;;6299769;28;20064;-76
2023/06/03 08:50:19;;;;;;;9.68;4.82;;;19.20;78.80;;;;;;6299602;28;20048;-75
2023/06/03 08:53:22;;;;;;;13.15;5.05;;;19.40;78.70;;;;;;6299622;28;20193;-75
2023/06/03 08:56:26;;;;;;;11.25;4.95;;;19.50;77.50;;;;;;6300128;28;20060;-74
2023/06/03 08:59:30;;;;;;;9.30;4.80;;;19.50;77.30;;;;;;6299259;28;20056;-75
2023/06/03 09:02:34;;;;;;;8.98;4.78;;;19.60;77.30;;;;;;6299270;28;20045;-75
2023/06/03 09:05:38;;;;;;;9.18;4.95;;;19.70;77.60;;;;;;6299803;28;20055;-74
2023/06/03 09:08:41;;;;;;;10.05;4.80;;;19.80;77.70;;;;;;6299129;28;20041;-76
2023/06/03 09:11:45;;;;;;;12.68;5.07;;;19.90;77.30;;;;;;6299227;28;20052;-74
2023/06/03 09:14:48;;;;;;;9.27;5.22;;;19.90;77.90;;;;;;6299391;28;20060;-75
2023/06/03 09:17:49;;;;;;;10.98;4.85;;;19.90;77.70;;;;;;6299149;28;20060;-73
2023/06/03 09:20:53;;;;;;;13.20;4.63;;;20.00;78.10;;;;;;6299435;28;20056;-75
2023/06/03 09:23:55;;;;;;;9.90;4.78;;;20.10;77.70;;;;;;6301554;28;20054;-74
2023/06/03 09:26:57;;;;;;;14.35;5.22;;;20.20;77.50;;;;;;6301591;28;20045;-75
2023/06/03 09:29:59;;;;;;;13.60;5.70;;;20.20;77.50;;;;;;6300162;28;20057;-73
2023/06/03 09:33:01;;;;;;;12.77;5.47;;;20.20;77.20;;;;;;6298820;28;20044;-76
2023/06/03 09:36:10;;;;;;;13.52;5.22;;;20.40;77.60;;;;;;6298614;28;20672;-75
2023/06/03 09:39:16;;;;;;;12.57;5.03;;;20.40;76.70;;;;;;6298273;28;20045;-74
2023/06/03 09:42:18;;;;;;;11.65;5.10;;;20.50;77.10;;;;;;6298484;28;20056;-74
2023/06/03 09:45:29;;;;;;;12.30;4.95;;;20.60;76.90;;;;;;6298221;28;20052;-72
2023/06/03 09:48:32;;;;;;;9.73;5.10;;;20.40;76.70;;;;;;6298456;28;20052;-74
2023/06/03 09:51:43;;;;;;;10.65;5.13;;;20.60;77.20;;;;;;6298145;28;20044;-76
2023/06/03 09:55:01;;;;;;;9.18;4.95;;;20.70;76.70;;;;;;6298316;28;20486;-74
2023/06/03 09:58:05;;;;;;;11.63;5.40;;;20.80;76.80;;;;;;6298436;28;20053;-75
2023/06/03 10:01:08;;;;;;;13.00;5.25;;;20.80;76.70;;;;;;6298196;28;20094;-75
2023/06/03 10:04:10;;;;;;;9.45;5.25;;;20.90;76.90;;;;;;6297701;28;20045;-74
2023/06/03 10:07:16;;;;;;;10.05;5.28;;;21.10;77.20;;;;;;6297668;28;20055;-74
2023/06/03 10:10:18;;;;;;;10.25;5.45;;;21.10;76.90;;;;;;6297941;28;20044;-75
2023/06/03 10:13:23;;;;;;;8.65;4.88;;;21.30;76.30;;;;;;6297895;28;20061;-74
2023/06/03 10:16:26;;;;;;;13.88;5.80;;;21.30;75.20;;;;;;6297841;28;20056;-75
2023/06/03 10:19:28;;;;;;;;;;;21.30;75.00;;;;;;6298205;28;20051;-74
2023/06/03 10:22:32;;;;;;;9.73;5.43;;;21.30;75.70;;;;;;6297533;28;19937;-75
2023/06/03 10:25:40;;;;;;;10.48;5.35;;;21.40;76.40;;;;;;6297494;28;20041;-74
2023/06/03 10:28:41;;;;;;;10.00;5.43;;;21.50;75.90;;;;;;6297849;28;20048;-74
2023/06/03 10:31:46;;;;;;;13.75;6.10;;;21.60;75.20;;;;;;6296562;28;20478;-75
2023/06/03 10:34:50;;;;;;;9.77;5.20;;;21.70;76.00;;;;;;6296658;28;20430;-75
2023/06/03 10:37:54;;;;;;;8.93;5.50;;;21.80;75.00;;;;;;6296727;28;20044;-75
2023/06/03 10:40:56;;;;;;;10.00;5.03;;;21.80;74.60;;;;;;6296678;28;20056;-74
2023/06/03 10:43:58;;;;;;;9.90;5.30;;;21.90;75.50;;;;;;6296352;28;20077;-75
2023/06/03 10:47:06;;;;;;;8.35;5.07;;;21.90;73.70;;;;;;6296234;28;20414;-74
2023/06/03 10:50:26;;;;;;;11.00;5.43;;;22.00;74.70;;;;;;6296432;28;20513;-74
2023/06/03 10:53:42;;;;;;;11.38;5.53;;;22.10;74.10;;;;;;6296459;28;20387;-73
2023/06/03 10:56:51;;;;;;;11.07;5.35;;;22.10;74.10;;;;;;6297083;28;20049;-74
2023/06/03 10:59:53;;;;;;;12.15;5.60;;;22.20;73.60;;;;;;6296335;28;20402;-75
2023/06/03 11:03:06;;;;;;;8.90;4.68;;;22.40;73.30;;;;;;6296479;28;20056;-74
2023/06/03 11:06:41;;;;;;;;;;;22.40;72.50;;;;;;6297239;28;20230;-74
2023/06/03 11:09:44;;;;;;;8.07;4.82;;;22.50;73.30;;;;;;6296591;28;19925;-74
2023/06/03 11:12:51;;;;;;;8.00;5.20;;;22.80;72.80;;;;;;6296883;28;20052;-74
2023/06/03 11:16:00;;;;;;;9.35;5.63;;;23.00;73.10;;;;;;6297171;28;20048;-73
2023/06/03 11:19:30;;;;;;;11.15;5.88;;;23.00;72.10;;;;;;6300785;28;20052;-74
2023/06/03 11:22:45;;;;;;;8.95;5.07;;;23.20;70.70;;;;;;6301122;28;20187;-76
2023/06/03 11:25:48;;;;;;;10.20;5.28;;;23.20;71.20;;;;;;6300921;28;20048;-73
2023/06/03 11:28:50;;;;;;;;;;;23.30;70.30;;;;;;6300967;28;20052;-74
2023/06/03 11:32:13;;;;;;;10.77;5.75;;;23.40;70.40;;;;;;6300767;28;19920;-74
2023/06/03 11:35:29;;;;;;;9.23;5.13;;;23.40;69.80;;;;;;6300748;28;20055;-73
2023/06/03 11:39:00;;;;;;;9.88;6.85;;;23.30;69.30;;;;;;6300393;28;20114;-73
2023/06/03 11:42:12;;;;;;;10.07;5.57;;;23.50;69.60;;;;;;6300280;28;20554;-73
2023/06/03 11:45:27;;;;;;;10.85;5.47;;;23.60;69.50;;;;;;6300665;28;20056;-72
2023/06/03 11:48:36;;;;;;;8.70;5.25;;;23.80;68.30;;;;;;6300039;28;20063;-73
2023/06/03 11:51:39;;;;;;;9.55;5.25;;;23.90;68.40;;;;;;6300807;28;20052;-74
2023/06/03 11:54:47;;;;;;;10.02;5.10;;;24.10;68.40;;;;;;6300470;28;20048;-72
2023/06/03 11:57:51;;;;;;;10.98;5.35;;;24.20;68.10;;;;;;6300141;28;20048;-73
2023/06/03 12:01:06;;;;;;;8.77;5.05;;;24.40;66.90;;;;;;6299852;28;20055;-75
2023/06/03 12:04:08;;;;;;;11.32;4.93;;;24.40;66.80;;;;;;6300082;28;20218;-75
2023/06/03 12:07:12;;;;;;;9.40;5.17;;;24.60;65.60;;;;;;6299831;28;20055;-74
2023/06/03 12:10:14;;;;;;;7.78;4.75;;;24.60;65.90;;;;;;6299944;28;20601;-74
2023/06/03 12:13:17;;;;;;;8.55;5.03;;;24.70;66.00;;;;;;6299679;28;20143;-74
2023/06/03 12:16:30;;;;;;;;;;;24.80;64.80;;;;;;6300157;28;20055;-75
2023/06/03 12:19:33;;;;;;;8.77;5.00;;;24.90;63.40;;;;;;6299585;28;19924;-74
2023/06/03 12:22:34;;;;;;;7.22;4.82;;;25.00;63.60;;;;;;6299539;28;20047;-74
2023/06/03 12:25:37;;;;;;;8.05;4.85;;;25.20;63.20;;;;;;6299392;28;20044;-74
2023/06/03 12:28:41;;;;;;;9.80;5.03;;;25.30;61.70;;;;;;6298589;28;20041;-73
2023/06/03 12:32:00;;;;;;;8.38;5.07;;;25.40;61.10;;;;;;6299476;28;20056;-73
2023/06/03 12:35:11;;;;;;;11.30;5.10;;;25.40;60.20;;;;;;6299445;28;20058;-73
2023/06/03 12:38:13;;;;;;;11.00;4.82;;;25.40;61.10;;;;;;6299029;28;20060;-72
2023/06/03 12:41:15;;;;;;;6.63;4.00;;;25.70;62.30;;;;;;6302575;28;20115;-71
2023/06/03 12:44:18;;;;;;;10.03;4.67;;;25.90;63.50;;;;;;6308118;28;20594;-70
2023/06/03 12:47:22;;;;;;;9.20;4.88;;;25.80;61.10;;;;;;6323791;28;20063;-69
2023/06/03 12:50:32;;;;;;;8.88;4.90;;;25.60;60.50;;;;;;6324062;28;20055;-71
2023/06/03 12:53:33;;;;;;;8.35;5.18;;;25.60;61.60;;;;;;6323906;28;20763;-70
2023/06/03 12:56:35;;;;;;;11.38;5.35;;;25.60;61.40;;;;;;6323826;28;20044;-70
2023/06/03 12:59:59;;;;;;;11.30;5.20;;;25.40;60.60;;;;;;6323841;28;20059;-69
2023/06/03 13:03:01;;;;;;;10.10;5.00;;;25.60;60.50;;;;;;6314812;28;20052;-69
2023/06/03 13:06:03;;;;;;;10.38;4.80;;;26.00;59.90;;;;;;6323623;28;20040;-70
2023/06/03 13:09:05;;;;;;;7.68;4.70;;;26.10;59.80;;;;;;6322281;28;20052;-71
2023/06/03 13:12:08;;;;;;;7.95;4.72;;;26.40;59.50;;;;;;6307338;28;20040;-71
2023/06/03 13:15:15;;;;;;;8.85;5.00;;;26.50;58.60;;;;;;6308339;28;20044;-70
2023/06/03 13:18:17;;;;;;;6.85;4.70;;;26.60;58.20;;;;;;6315322;28;20066;-71
2023/06/03 13:21:20;;;;;;;8.98;4.78;;;26.90;57.80;;;;;;6324344;28;20048;-74
2023/06/03 13:24:22;;;;;;;;;;;26.80;56.90;;;;;;6323455;28;20052;-72
2023/06/03 13:27:23;;;;;;;8.95;4.80;;;26.90;57.20;;;;;;6320657;28;19927;-69
2023/06/03 13:30:27;;;;;;;9.00;4.85;;;26.60;57.60;;;;;;6321526;28;20376;-69
2023/06/03 13:33:29;;;;;;;10.02;5.00;;;26.90;57.00;;;;;;6322120;28;20052;-70
2023/06/03 13:36:31;;;;;;;8.13;4.50;;;26.90;56.80;;;;;;6323197;28;20130;-70
2023/06/03 13:39:33;;;;;;;9.13;4.97;;;27.00;56.50;;;;;;6315156;28;20052;-71
2023/06/03 13:42:35;;;;;;;7.33;4.07;;;27.10;55.80;;;;;;6308797;28;20048;-71
2023/06/03 13:45:38;;;;;;;8.95;4.57;;;27.30;55.50;;;;;;6307125;28;20053;-70
2023/06/03 13:48:40;;;;;;;7.72;4.13;;;27.40;54.20;;;;;;6298555;28;20048;-71
2023/06/03 13:51:42;;;;;;;8.20;4.60;;;27.50;54.20;;;;;;6306914;28;20044;-71
2023/06/03 13:54:44;;;;;;;7.73;4.53;;;27.50;55.30;;;;;;6332743;28;20052;-71
2023/06/03 13:57:46;;;;;;;8.80;4.72;;;27.70;54.40;;;;;;6305851;28;20044;-71
2023/06/03 14:00:49;;;;;;;7.70;4.80;;;27.80;53.90;;;;;;6309503;28;20058;-70
2023/06/03 14:03:51;;;;;;;7.63;4.57;;;27.90;54.20;;;;;;6297202;28;20049;-71
2023/06/03 14:06:53;;;;;;;6.50;4.25;;;28.00;53.40;;;;;;6297317;28;20056;-70
2023/06/03 14:09:55;;;;;;;8.93;4.50;;;28.10;52.80;;;;;;6296992;28;20398;-70
2023/06/03 14:12:57;;;;;;;8.48;4.75;;;28.10;52.00;;;;;;6306832;28;20047;-71
2023/06/03 14:16:01;;;;;;;9.02;4.38;;;28.10;52.90;;;;;;6301996;28;20060;-71
2023/06/03 14:19:03;;;;;;;8.80;4.70;;;27.80;53.00;;;;;;6298598;28;20398;-71
2023/06/03 14:22:06;;;;;;;8.38;4.63;;;27.50;54.10;;;;;;6321719;28;20044;-70
2023/06/03 14:25:09;;;;;;;;;;;27.70;53.60;;;;;;6323049;28;20044;-70
2023/06/03 14:28:11;;;;;;;8.68;4.63;;;27.90;53.00;;;;;;6321926;28;20373;-74
2023/06/03 14:31:15;;;;;;;8.83;4.67;;;28.10;52.80;;;;;;6311196;28;20112;-71
2023/06/03 14:34:17;;;;;;;8.38;4.75;;;28.00;52.50;;;;;;6322742;28;20052;-72
2023/06/03 14:37:19;;;;;;;6.85;4.47;;;28.10;52.50;;;;;;6316918;28;20048;-72
2023/06/03 14:40:21;;;;;;;6.90;4.50;;;28.30;52.10;;;;;;6313865;28;20059;-71
2023/06/03 14:43:23;;;;;;;7.72;4.45;;;28.50;52.30;;;;;;6321399;28;20048;-70
2023/06/03 14:46:27;;;;;;;8.57;4.53;;;28.50;52.90;;;;;;6320836;28;20063;-71
2023/06/03 14:49:29;;;;;;;9.90;4.50;;;28.00;52.40;;;;;;6320513;28;20520;-70
2023/06/03 14:52:31;;;;;;;7.97;4.50;;;27.80;52.80;;;;;;6318897;28;20089;-72
2023/06/03 14:55:33;;;;;;;8.13;4.80;;;27.80;52.70;;;;;;6326176;28;20313;-71
2023/06/03 14:58:35;;;;;;;8.27;4.70;;;28.00;52.00;;;;;;6326621;28;20044;-72
2023/06/03 15:01:38;;;;;;;7.35;4.45;;;28.20;52.10;;;;;;6325364;28;20040;-70
2023/06/03 15:04:42;;;;;;;11.35;8.93;;;28.50;51.40;;;;;;6325767;28;20055;-74
2023/06/03 15:07:45;;;;;;;16.20;12.80;;;28.60;51.50;;;;;;6316896;28;20055;-70
2023/06/03 15:10:47;;;;;;;9.75;7.47;;;28.80;51.00;;;;;;6314511;28;20051;-70
2023/06/03 15:13:49;;;;;;;11.05;4.75;;;28.90;50.70;;;;;;6325117;28;20055;-70
2023/06/03 15:16:53;;;;;;;8.98;5.43;;;29.00;51.40;;;;;;6321954;28;20050;-70
2023/06/03 15:19:55;;;;;;;7.07;4.45;;;29.20;50.70;;;;;;6305510;28;20048;-71
2023/06/03 15:22:57;;;;;;;8.40;4.63;;;29.40;50.20;;;;;;6324709;28;20078;-73
2023/06/03 15:25:59;;;;;;;7.32;4.45;;;29.10;51.60;;;;;;6329883;28;20044;-75
2023/06/03 15:29:01;;;;;;;10.63;4.47;;;29.30;50.70;;;;;;6324659;28;20493;-74
2023/06/03 15:32:06;;;;;;;8.43;4.10;;;28.80;49.70;;;;;;6323112;28;20048;-74
2023/06/03 15:35:08;;;;;;;9.23;4.50;;;28.50;50.30;;;;;;6334791;28;20485;-74
2023/06/03 15:38:10;;;;;;;6.50;4.53;;;28.10;50.00;;;;;;6325564;28;20043;-74
2023/06/03 15:41:12;;;;;;;10.30;4.32;;;28.50;51.20;;;;;;6326629;28;20048;-75
2023/06/03 15:44:14;;;;;;;8.60;4.53;;;28.70;50.80;;;;;;6329646;28;20054;-74
2023/06/03 15:47:18;;;;;;;7.27;4.00;;;28.90;49.80;;;;;;6324767;28;20514;-73
2023/06/03 15:50:19;;;;;;;7.43;4.35;;;29.40;49.90;;;;;;6333963;28;20321;-74
2023/06/03 15:53:21;;;;;;;6.90;4.50;;;30.00;49.20;;;;;;6325149;28;20050;-74
2023/06/03 15:56:23;;;;;;;6.80;4.27;;;29.80;48.80;;;;;;6325578;28;20130;-74
2023/06/03 15:59:26;;;;;;;7.97;4.27;;;29.80;49.60;;;;;;6325733;28;20170;-76